A08

Vaiden Field Airport

Marion, Alabama, USA
METAR KA08 261315Z AUTO 17006KT 5SM RA BKN014 BKN032 OVC041 14/14 A2983 RMK AO2 P0003 T01380138
Observed Flight Rules
Apr-26 @ 13:15 UTC (20 minutes ago) Marginal Visual Flight Rules
Wind Visibility Clouds Conditions
170° at 6 knots 5 miles
  • Broken at 1,400' AGL
  • Broken at 3,200' AGL
  • Overcast at 4,100' AGL
  • Rain
Temperatures Readings Precipitation
Current 14°C / 57°F
Dewpoint 14°C / 57°F
Humidity 100%
Altimeter 29.83" Hg
Pressure 1010 hPa
Elevation 69
Current Rain 0.03
METAR KA08 261315Z AUTO 17006KT 5SM RA BKN014 BKN032 OVC041 14/14 A2983 RMK AO2 P0003 T01380138
Observed Flight Rules
Apr-26 @ 13:15 UTC
(20 minutes ago)
MVFR
Wind Visibility
170° at 6 knots 5 miles
Clouds
  • Broken at 1,400' AGL
  • Broken at 3,200' AGL
  • Overcast at 4,100' AGL
Conditions
  • Rain
Temperature Dewpoint
14°C / 57°F 14°C / 57°F
Humidity Altimeter Pressure
100% 29.83" Hg 1010 hPa
Current Rain
0.03